| Date | Time | Temp. (oF) | Dew Point (oF) | Rel. Hum. (%) | Press. (in.) | Wind Dir. | Wind Speed (mph) | Hourly Rainfall (in.) |
|
|---|---|---|---|---|---|---|---|---|---|
| 1 | 12/10 | 00:00 | 10 | 7 | 91 | 30.46 | N | 0 | 0.00 |
| 2 | 12/09 | 23:00 | 10 | 7 | 88 | 30.49 | E | 3 | 0.00 |
| 3 | 12/09 | 22:00 | 11 | 6 | 81 | 30.50 | NE | 0 | 0.00 |
| 4 | 12/09 | 21:00 | 13 | 6 | 75 | 30.49 | NE | 0 | 0.00 |
| 5 | 12/09 | 20:00 | 13 | 5 | 71 | 30.52 | E | 1 | 0.00 |
| 6 | 12/09 | 19:00 | 16 | 5 | 64 | 30.52 | E | 1 | 0.00 |
| 7 | 12/09 | 18:00 | 18 | 5 | 58 | 30.54 | ENE | 2 | 0.00 |
| 8 | 12/09 | 17:00 | 20 | 4 | 51 | 30.55 | NE | 2 | 0.00 |
| 9 | 12/09 | 16:00 | 23 | 7 | 50 | 30.52 | ESE | 2 | 0.00 |
| 10 | 12/09 | 15:00 | 25 | 8 | 49 | 30.53 | ESE | 4 | 0.00 |
| 11 | 12/09 | 14:00 | 25 | 9 | 51 | 30.56 | SSE | 4 | 0.00 |
| 12 | 12/09 | 13:00 | 24 | 8 | 52 | 30.59 | SSE | 5 | 0.00 |
| 13 | 12/09 | 12:00 | 25 | 8 | 49 | 30.61 | NE | 2 | 0.00 |
| 14 | 12/09 | 11:00 | 22 | 8 | 56 | 30.64 | NE | 5 | 0.00 |
| 15 | 12/09 | 10:00 | 21 | 8 | 57 | 30.65 | NE | 7 | 0.00 |
| 16 | 12/09 | 09:00 | 18 | 7 | 62 | 30.65 | NNE | 9 | 0.00 |
| 17 | 12/09 | 08:00 | 15 | 6 | 68 | 30.63 | NNE | 7 | 0.00 |
| 18 | 12/09 | 07:00 | 15 | 6 | 68 | 30.60 | N | 3 | 0.00 |
| 19 | 12/09 | 06:00 | 17 | 8 | 69 | 30.58 | NNE | 3 | 0.00 |
| 20 | 12/09 | 05:00 | 19 | 10 | 69 | 30.55 | N | 4 | 0.00 |
| 21 | 12/09 | 04:00 | 20 | 11 | 70 | 30.52 | N | 1 | 0.00 |
| 22 | 12/09 | 03:00 | 21 | 11 | 66 | 30.51 | NNW | 8 | 0.00 |
| 23 | 12/09 | 02:00 | 24 | 11 | 59 | 30.49 | N | 7 | 0.00 |
| 24 | 12/09 | 01:00 | 25 | 11 | 56 | 30.46 | NW | 7 | 0.00 |